sensor_id;sensor_type;location;lat;lon;timestamp;temperature;humidity
78988;DHT22;74752;44.786;37.680;2023-12-20T00:00:57;11.12;85.51
78988;DHT22;74752;44.786;37.680;2023-12-20T00:02:00;11.16;85.38
78988;DHT22;74752;44.786;37.680;2023-12-20T00:03:04;11.14;85.60
78988;DHT22;74752;44.786;37.680;2023-12-20T00:04:09;11.15;85.61
78988;DHT22;74752;44.786;37.680;2023-12-20T00:05:13;11.15;85.52
78988;DHT22;74752;44.786;37.680;2023-12-20T00:06:16;11.12;85.86
78988;DHT22;74752;44.786;37.680;2023-12-20T00:07:22;11.13;86.50
78988;DHT22;74752;44.786;37.680;2023-12-20T00:08:27;11.07;86.92
78988;DHT22;74752;44.786;37.680;2023-12-20T00:09:35;11.10;87.51
78988;DHT22;74752;44.786;37.680;2023-12-20T00:10:39;11.08;88.05
78988;DHT22;74752;44.786;37.680;2023-12-20T00:11:45;11.08;88.84
78988;DHT22;74752;44.786;37.680;2023-12-20T00:12:48;11.10;88.91
78988;DHT22;74752;44.786;37.680;2023-12-20T00:13:52;11.05;88.97
78988;DHT22;74752;44.786;37.680;2023-12-20T00:14:55;11.04;89.38
78988;DHT22;74752;44.786;37.680;2023-12-20T00:15:57;11.01;89.65
78988;DHT22;74752;44.786;37.680;2023-12-20T00:17:00;10.99;89.83
78988;DHT22;74752;44.786;37.680;2023-12-20T00:18:07;10.98;90.13
78988;DHT22;74752;44.786;37.680;2023-12-20T00:19:15;10.97;90.21
78988;DHT22;74752;44.786;37.680;2023-12-20T00:20:20;10.96;90.52
78988;DHT22;74752;44.786;37.680;2023-12-20T00:21:23;10.97;90.72
78988;DHT22;74752;44.786;37.680;2023-12-20T00:22:33;10.98;90.34
78988;DHT22;74752;44.786;37.680;2023-12-20T00:23:37;10.96;90.34
78988;DHT22;74752;44.786;37.680;2023-12-20T00:24:40;10.88;90.34
78988;DHT22;74752;44.786;37.680;2023-12-20T00:25:44;10.83;90.65
78988;DHT22;74752;44.786;37.680;2023-12-20T00:26:55;10.73;91.00
78988;DHT22;74752;44.786;37.680;2023-12-20T00:27:57;10.70;91.49
78988;DHT22;74752;44.786;37.680;2023-12-20T00:29:00;10.70;91.95
78988;DHT22;74752;44.786;37.680;2023-12-20T00:30:11;10.74;91.43
78988;DHT22;74752;44.786;37.680;2023-12-20T00:31:16;10.72;90.65
78988;DHT22;74752;44.786;37.680;2023-12-20T00:32:20;10.71;90.41
78988;DHT22;74752;44.786;37.680;2023-12-20T00:33:25;10.70;90.76
78988;DHT22;74752;44.786;37.680;2023-12-20T00:34:30;10.63;90.82
78988;DHT22;74752;44.786;37.680;2023-12-20T00:35:35;10.60;91.56
78988;DHT22;74752;44.786;37.680;2023-12-20T00:36:42;10.60;91.46
78988;DHT22;74752;44.786;37.680;2023-12-20T00:37:50;10.57;91.02
78988;DHT22;74752;44.786;37.680;2023-12-20T00:39:04;10.59;90.47
78988;DHT22;74752;44.786;37.680;2023-12-20T00:40:13;10.62;90.89
78988;DHT22;74752;44.786;37.680;2023-12-20T00:41:17;10.59;90.21
78988;DHT22;74752;44.786;37.680;2023-12-20T00:42:20;10.59;89.43
78988;DHT22;74752;44.786;37.680;2023-12-20T00:43:23;10.59;89.89
78988;DHT22;74752;44.786;37.680;2023-12-20T00:44:25;10.59;90.11
78988;DHT22;74752;44.786;37.680;2023-12-20T00:45:30;10.59;89.64
78988;DHT22;74752;44.786;37.680;2023-12-20T00:46:35;10.59;90.35
78988;DHT22;74752;44.786;37.680;2023-12-20T00:47:37;10.56;90.41
78988;DHT22;74752;44.786;37.680;2023-12-20T00:48:42;10.57;90.54
78988;DHT22;74752;44.786;37.680;2023-12-20T00:49:47;10.52;90.79
78988;DHT22;74752;44.786;37.680;2023-12-20T00:50:50;10.53;90.79
78988;DHT22;74752;44.786;37.680;2023-12-20T00:51:53;10.54;91.17
78988;DHT22;74752;44.786;37.680;2023-12-20T00:52:57;10.55;90.95
78988;DHT22;74752;44.786;37.680;2023-12-20T00:54:00;10.56;91.13
78988;DHT22;74752;44.786;37.680;2023-12-20T00:55:03;10.56;91.16
78988;DHT22;74752;44.786;37.680;2023-12-20T00:56:06;10.59;91.30
78988;DHT22;74752;44.786;37.680;2023-12-20T00:57:11;10.63;91.30
78988;DHT22;74752;44.786;37.680;2023-12-20T00:58:16;10.65;91.17
78988;DHT22;74752;44.786;37.680;2023-12-20T00:59:22;10.64;91.30
78988;DHT22;74752;44.786;37.680;2023-12-20T01:00:24;10.69;91.15
78988;DHT22;74752;44.786;37.680;2023-12-20T01:01:27;10.73;91.11
78988;DHT22;74752;44.786;37.680;2023-12-20T01:02:30;10.74;90.94
78988;DHT22;74752;44.786;37.680;2023-12-20T01:03:32;10.75;90.79
78988;DHT22;74752;44.786;37.680;2023-12-20T01:04:35;10.77;90.55
78988;DHT22;74752;44.786;37.680;2023-12-20T01:05:37;10.77;90.34
78988;DHT22;74752;44.786;37.680;2023-12-20T01:06:40;10.81;90.34
78988;DHT22;74752;44.786;37.680;2023-12-20T01:07:53;10.85;90.05
78988;DHT22;74752;44.786;37.680;2023-12-20T01:08:55;10.83;89.77
78988;DHT22;74752;44.786;37.680;2023-12-20T01:10:03;10.85;89.80
78988;DHT22;74752;44.786;37.680;2023-12-20T01:11:05;10.85;89.86
78988;DHT22;74752;44.786;37.680;2023-12-20T01:12:07;10.80;90.08
78988;DHT22;74752;44.786;37.680;2023-12-20T01:13:10;10.77;90.50
78988;DHT22;74752;44.786;37.680;2023-12-20T01:14:15;10.73;90.08
78988;DHT22;74752;44.786;37.680;2023-12-20T01:15:17;10.70;90.59
78988;DHT22;74752;44.786;37.680;2023-12-20T01:16:25;10.65;91.02
78988;DHT22;74752;44.786;37.680;2023-12-20T01:17:27;10.62;90.62
78988;DHT22;74752;44.786;37.680;2023-12-20T01:18:30;10.60;90.16
78988;DHT22;74752;44.786;37.680;2023-12-20T01:19:32;10.62;89.92
78988;DHT22;74752;44.786;37.680;2023-12-20T01:20:35;10.62;90.46
78988;DHT22;74752;44.786;37.680;2023-12-20T01:21:37;10.59;89.90
78988;DHT22;74752;44.786;37.680;2023-12-20T01:22:42;10.59;90.35
78988;DHT22;74752;44.786;37.680;2023-12-20T01:23:44;10.57;89.77
78988;DHT22;74752;44.786;37.680;2023-12-20T01:24:53;10.57;90.15
78988;DHT22;74752;44.786;37.680;2023-12-20T01:25:57;10.54;89.87
78988;DHT22;74752;44.786;37.680;2023-12-20T01:27:01;10.57;89.99
78988;DHT22;74752;44.786;37.680;2023-12-20T01:28:06;10.58;89.77
78988;DHT22;74752;44.786;37.680;2023-12-20T01:29:10;10.62;89.95
78988;DHT22;74752;44.786;37.680;2023-12-20T01:30:14;10.65;89.37
78988;DHT22;74752;44.786;37.680;2023-12-20T01:31:16;10.70;89.45
78988;DHT22;74752;44.786;37.680;2023-12-20T01:32:24;10.71;89.22
78988;DHT22;74752;44.786;37.680;2023-12-20T01:33:26;10.70;89.31
78988;DHT22;74752;44.786;37.680;2023-12-20T01:34:30;10.71;89.48
78988;DHT22;74752;44.786;37.680;2023-12-20T01:35:35;10.72;90.08
78988;DHT22;74752;44.786;37.680;2023-12-20T01:36:40;10.74;89.83
78988;DHT22;74752;44.786;37.680;2023-12-20T01:37:42;10.77;89.70
78988;DHT22;74752;44.786;37.680;2023-12-20T01:38:54;10.77;89.70
78988;DHT22;74752;44.786;37.680;2023-12-20T01:39:57;10.74;89.69
78988;DHT22;74752;44.786;37.680;2023-12-20T01:41:00;10.75;90.04
78988;DHT22;74752;44.786;37.680;2023-12-20T01:42:03;10.77;89.62
78988;DHT22;74752;44.786;37.680;2023-12-20T01:43:08;10.79;89.76
78988;DHT22;74752;44.786;37.680;2023-12-20T01:44:14;10.80;89.76
78988;DHT22;74752;44.786;37.680;2023-12-20T01:45:19;10.80;89.81
78988;DHT22;74752;44.786;37.680;2023-12-20T01:46:22;10.79;89.35
78988;DHT22;74752;44.786;37.680;2023-12-20T01:47:26;10.79;88.93
78988;DHT22;74752;44.786;37.680;2023-12-20T01:48:31;10.80;89.57
78988;DHT22;74752;44.786;37.680;2023-12-20T01:49:35;10.73;88.41
78988;DHT22;74752;44.786;37.680;2023-12-20T01:50:44;10.73;88.69
78988;DHT22;74752;44.786;37.680;2023-12-20T01:51:47;10.70;89.01
78988;DHT22;74752;44.786;37.680;2023-12-20T01:52:52;10.71;89.13
78988;DHT22;74752;44.786;37.680;2023-12-20T01:54:03;10.73;88.95
78988;DHT22;74752;44.786;37.680;2023-12-20T01:55:14;10.72;88.82
78988;DHT22;74752;44.786;37.680;2023-12-20T01:56:17;10.74;88.85
78988;DHT22;74752;44.786;37.680;2023-12-20T01:57:20;10.78;89.12
78988;DHT22;74752;44.786;37.680;2023-12-20T01:58:23;10.79;89.02
78988;DHT22;74752;44.786;37.680;2023-12-20T01:59:26;10.80;89.31
78988;DHT22;74752;44.786;37.680;2023-12-20T02:00:30;10.77;89.92
78988;DHT22;74752;44.786;37.680;2023-12-20T02:01:36;10.78;89.69
78988;DHT22;74752;44.786;37.680;2023-12-20T02:02:40;10.78;88.67
78988;DHT22;74752;44.786;37.680;2023-12-20T02:03:45;10.78;88.64
78988;DHT22;74752;44.786;37.680;2023-12-20T02:04:49;10.81;88.81
78988;DHT22;74752;44.786;37.680;2023-12-20T02:05:53;10.83;87.89
78988;DHT22;74752;44.786;37.680;2023-12-20T02:06:56;10.84;87.83
78988;DHT22;74752;44.786;37.680;2023-12-20T02:08:01;10.80;88.11
78988;DHT22;74752;44.786;37.680;2023-12-20T02:09:04;10.81;87.57
78988;DHT22;74752;44.786;37.680;2023-12-20T02:10:11;10.83;87.79
78988;DHT22;74752;44.786;37.680;2023-12-20T02:11:18;10.86;88.14
78988;DHT22;74752;44.786;37.680;2023-12-20T02:12:27;10.82;88.97
78988;DHT22;74752;44.786;37.680;2023-12-20T02:13:31;10.85;88.98
78988;DHT22;74752;44.786;37.680;2023-12-20T02:14:36;10.88;89.21
78988;DHT22;74752;44.786;37.680;2023-12-20T02:15:44;10.87;88.92
78988;DHT22;74752;44.786;37.680;2023-12-20T02:16:48;10.86;89.00
78988;DHT22;74752;44.786;37.680;2023-12-20T02:17:51;10.90;89.12
78988;DHT22;74752;44.786;37.680;2023-12-20T02:18:56;10.90;89.05
78988;DHT22;74752;44.786;37.680;2023-12-20T02:20:05;10.93;88.89
78988;DHT22;74752;44.786;37.680;2023-12-20T02:21:09;10.97;89.22
78988;DHT22;74752;44.786;37.680;2023-12-20T02:22:12;10.99;89.13
78988;DHT22;74752;44.786;37.680;2023-12-20T02:23:18;11.00;89.29
78988;DHT22;74752;44.786;37.680;2023-12-20T02:24:25;11.07;88.76
78988;DHT22;74752;44.786;37.680;2023-12-20T02:25:33;11.10;88.66
78988;DHT22;74752;44.786;37.680;2023-12-20T02:26:35;11.07;88.71
78988;DHT22;74752;44.786;37.680;2023-12-20T02:27:37;11.08;88.82
78988;DHT22;74752;44.786;37.680;2023-12-20T02:28:40;11.13;89.15
78988;DHT22;74752;44.786;37.680;2023-12-20T02:29:47;11.19;88.83
78988;DHT22;74752;44.786;37.680;2023-12-20T02:30:50;11.18;88.61
78988;DHT22;74752;44.786;37.680;2023-12-20T02:31:55;11.18;88.40
78988;DHT22;74752;44.786;37.680;2023-12-20T02:32:57;11.11;88.70
78988;DHT22;74752;44.786;37.680;2023-12-20T02:34:01;11.12;88.89
78988;DHT22;74752;44.786;37.680;2023-12-20T02:35:07;11.11;88.86
78988;DHT22;74752;44.786;37.680;2023-12-20T02:36:17;11.07;88.67
78988;DHT22;74752;44.786;37.680;2023-12-20T02:37:20;11.08;88.99
78988;DHT22;74752;44.786;37.680;2023-12-20T02:38:23;11.08;89.27
78988;DHT22;74752;44.786;37.680;2023-12-20T02:39:25;11.10;89.13
78988;DHT22;74752;44.786;37.680;2023-12-20T02:40:29;11.12;89.09
78988;DHT22;74752;44.786;37.680;2023-12-20T02:41:32;11.08;88.89
78988;DHT22;74752;44.786;37.680;2023-12-20T02:42:35;11.05;88.58
78988;DHT22;74752;44.786;37.680;2023-12-20T02:43:37;11.01;88.86
78988;DHT22;74752;44.786;37.680;2023-12-20T02:44:44;11.02;88.61
78988;DHT22;74752;44.786;37.680;2023-12-20T02:45:48;11.05;88.47
78988;DHT22;74752;44.786;37.680;2023-12-20T02:46:50;11.03;88.51
78988;DHT22;74752;44.786;37.680;2023-12-20T02:47:54;11.03;88.66
78988;DHT22;74752;44.786;37.680;2023-12-20T02:48:56;11.00;88.17
78988;DHT22;74752;44.786;37.680;2023-12-20T02:50:06;10.98;88.56
78988;DHT22;74752;44.786;37.680;2023-12-20T02:51:13;11.00;88.80
78988;DHT22;74752;44.786;37.680;2023-12-20T02:52:16;11.00;88.99
78988;DHT22;74752;44.786;37.680;2023-12-20T02:53:20;11.02;88.71
78988;DHT22;74752;44.786;37.680;2023-12-20T02:54:22;11.00;89.21
78988;DHT22;74752;44.786;37.680;2023-12-20T02:55:27;11.02;89.07
78988;DHT22;74752;44.786;37.680;2023-12-20T02:56:30;11.01;89.54
78988;DHT22;74752;44.786;37.680;2023-12-20T02:57:32;10.99;89.71
78988;DHT22;74752;44.786;37.680;2023-12-20T02:58:37;10.99;90.29
78988;DHT22;74752;44.786;37.680;2023-12-20T02:59:45;11.00;89.61
78988;DHT22;74752;44.786;37.680;2023-12-20T03:00:50;11.02;89.79
78988;DHT22;74752;44.786;37.680;2023-12-20T03:01:54;11.07;89.77
78988;DHT22;74752;44.786;37.680;2023-12-20T03:02:56;11.02;89.63
78988;DHT22;74752;44.786;37.680;2023-12-20T03:03:59;11.00;89.55
78988;DHT22;74752;44.786;37.680;2023-12-20T03:05:05;11.04;89.58
78988;DHT22;74752;44.786;37.680;2023-12-20T03:06:10;11.05;89.88
78988;DHT22;74752;44.786;37.680;2023-12-20T03:07:14;11.09;89.61
78988;DHT22;74752;44.786;37.680;2023-12-20T03:08:16;11.08;89.35
78988;DHT22;74752;44.786;37.680;2023-12-20T03:09:21;11.10;89.37
78988;DHT22;74752;44.786;37.680;2023-12-20T03:10:26;11.11;88.60
78988;DHT22;74752;44.786;37.680;2023-12-20T03:11:30;11.11;88.43
78988;DHT22;74752;44.786;37.680;2023-12-20T03:12:33;11.12;88.21
78988;DHT22;74752;44.786;37.680;2023-12-20T03:13:35;11.10;88.09
78988;DHT22;74752;44.786;37.680;2023-12-20T03:14:36;11.10;88.58
78988;DHT22;74752;44.786;37.680;2023-12-20T03:15:42;11.07;87.64
78988;DHT22;74752;44.786;37.680;2023-12-20T03:16:51;11.05;87.60
78988;DHT22;74752;44.786;37.680;2023-12-20T03:17:56;11.10;87.66
78988;DHT22;74752;44.786;37.680;2023-12-20T03:19:01;11.09;88.00
78988;DHT22;74752;44.786;37.680;2023-12-20T03:20:04;11.08;87.38
78988;DHT22;74752;44.786;37.680;2023-12-20T03:21:10;11.10;87.28
78988;DHT22;74752;44.786;37.680;2023-12-20T03:22:12;11.13;87.32
78988;DHT22;74752;44.786;37.680;2023-12-20T03:23:16;11.16;87.76
78988;DHT22;74752;44.786;37.680;2023-12-20T03:24:20;11.17;86.88
78988;DHT22;74752;44.786;37.680;2023-12-20T03:25:23;11.14;87.12
78988;DHT22;74752;44.786;37.680;2023-12-20T03:26:27;11.17;87.06
78988;DHT22;74752;44.786;37.680;2023-12-20T03:27:35;11.13;86.96
78988;DHT22;74752;44.786;37.680;2023-12-20T03:28:40;11.19;86.31
78988;DHT22;74752;44.786;37.680;2023-12-20T03:29:43;11.17;86.41
78988;DHT22;74752;44.786;37.680;2023-12-20T03:30:45;11.18;86.03
78988;DHT22;74752;44.786;37.680;2023-12-20T03:31:47;11.19;86.32
78988;DHT22;74752;44.786;37.680;2023-12-20T03:32:53;11.23;86.81
78988;DHT22;74752;44.786;37.680;2023-12-20T03:34:01;11.24;86.20
78988;DHT22;74752;44.786;37.680;2023-12-20T03:35:03;11.20;86.32
78988;DHT22;74752;44.786;37.680;2023-12-20T03:36:10;11.19;86.10
78988;DHT22;74752;44.786;37.680;2023-12-20T03:37:15;11.18;85.86
78988;DHT22;74752;44.786;37.680;2023-12-20T03:38:17;11.16;86.12
78988;DHT22;74752;44.786;37.680;2023-12-20T03:39:20;11.17;86.37
78988;DHT22;74752;44.786;37.680;2023-12-20T03:40:22;11.13;86.29
78988;DHT22;74752;44.786;37.680;2023-12-20T03:41:29;11.15;86.45
78988;DHT22;74752;44.786;37.680;2023-12-20T03:42:35;11.17;86.24
78988;DHT22;74752;44.786;37.680;2023-12-20T03:43:39;11.15;86.58
78988;DHT22;74752;44.786;37.680;2023-12-20T03:44:42;11.18;86.85
78988;DHT22;74752;44.786;37.680;2023-12-20T03:45:47;11.12;86.42
78988;DHT22;74752;44.786;37.680;2023-12-20T03:46:52;11.14;86.54
78988;DHT22;74752;44.786;37.680;2023-12-20T03:47:54;11.17;85.84
78988;DHT22;74752;44.786;37.680;2023-12-20T03:49:00;11.16;85.60
78988;DHT22;74752;44.786;37.680;2023-12-20T03:50:05;11.13;85.52
78988;DHT22;74752;44.786;37.680;2023-12-20T03:51:07;11.11;85.91
78988;DHT22;74752;44.786;37.680;2023-12-20T03:52:12;11.13;85.93
78988;DHT22;74752;44.786;37.680;2023-12-20T03:53:20;11.11;85.32
78988;DHT22;74752;44.786;37.680;2023-12-20T03:54:24;11.08;85.53
78988;DHT22;74752;44.786;37.680;2023-12-20T03:55:26;11.09;85.67
78988;DHT22;74752;44.786;37.680;2023-12-20T03:56:31;11.10;85.95
78988;DHT22;74752;44.786;37.680;2023-12-20T03:57:36;11.04;86.03
78988;DHT22;74752;44.786;37.680;2023-12-20T03:58:43;11.09;86.25
78988;DHT22;74752;44.786;37.680;2023-12-20T03:59:45;11.09;85.85
78988;DHT22;74752;44.786;37.680;2023-12-20T04:00:49;11.11;85.96
78988;DHT22;74752;44.786;37.680;2023-12-20T04:01:52;11.10;85.43
78988;DHT22;74752;44.786;37.680;2023-12-20T04:03:03;11.04;85.19
78988;DHT22;74752;44.786;37.680;2023-12-20T04:04:05;11.04;85.49
78988;DHT22;74752;44.786;37.680;2023-12-20T04:05:07;11.05;85.46
78988;DHT22;74752;44.786;37.680;2023-12-20T04:06:10;11.11;85.45
78988;DHT22;74752;44.786;37.680;2023-12-20T04:07:30;11.10;85.74
78988;DHT22;74752;44.786;37.680;2023-12-20T04:08:37;11.12;85.08
78988;DHT22;74752;44.786;37.680;2023-12-20T04:09:40;11.10;85.67
78988;DHT22;74752;44.786;37.680;2023-12-20T04:10:43;11.09;85.74
78988;DHT22;74752;44.786;37.680;2023-12-20T04:11:52;11.08;85.77
78988;DHT22;74752;44.786;37.680;2023-12-20T04:12:56;11.10;85.61
78988;DHT22;74752;44.786;37.680;2023-12-20T04:14:01;11.11;86.01
78988;DHT22;74752;44.786;37.680;2023-12-20T04:15:04;11.10;85.47
78988;DHT22;74752;44.786;37.680;2023-12-20T04:16:16;11.08;85.74
78988;DHT22;74752;44.786;37.680;2023-12-20T04:17:21;11.09;85.41
78988;DHT22;74752;44.786;37.680;2023-12-20T04:18:28;11.09;85.57
78988;DHT22;74752;44.786;37.680;2023-12-20T04:19:34;11.09;85.35
78988;DHT22;74752;44.786;37.680;2023-12-20T04:20:36;11.10;84.93
78988;DHT22;74752;44.786;37.680;2023-12-20T04:21:41;11.13;85.42
78988;DHT22;74752;44.786;37.680;2023-12-20T04:22:43;11.14;85.04
78988;DHT22;74752;44.786;37.680;2023-12-20T04:23:45;11.16;84.66
78988;DHT22;74752;44.786;37.680;2023-12-20T04:24:56;11.18;83.87
78988;DHT22;74752;44.786;37.680;2023-12-20T04:26:01;11.23;84.72
78988;DHT22;74752;44.786;37.680;2023-12-20T04:27:03;11.20;83.84
78988;DHT22;74752;44.786;37.680;2023-12-20T04:28:09;11.23;84.24
78988;DHT22;74752;44.786;37.680;2023-12-20T04:29:16;11.23;83.84
78988;DHT22;74752;44.786;37.680;2023-12-20T04:30:18;11.23;83.77
78988;DHT22;74752;44.786;37.680;2023-12-20T04:31:21;11.23;83.95
78988;DHT22;74752;44.786;37.680;2023-12-20T04:32:24;11.22;84.23
78988;DHT22;74752;44.786;37.680;2023-12-20T04:33:27;11.22;84.51
78988;DHT22;74752;44.786;37.680;2023-12-20T04:34:30;11.19;84.49
78988;DHT22;74752;44.786;37.680;2023-12-20T04:35:37;11.23;83.66
78988;DHT22;74752;44.786;37.680;2023-12-20T04:36:42;11.19;83.78
78988;DHT22;74752;44.786;37.680;2023-12-20T04:37:46;11.20;83.72
78988;DHT22;74752;44.786;37.680;2023-12-20T04:38:50;11.22;84.23
78988;DHT22;74752;44.786;37.680;2023-12-20T04:39:56;11.23;83.90
78988;DHT22;74752;44.786;37.680;2023-12-20T04:41:00;11.22;83.43
78988;DHT22;74752;44.786;37.680;2023-12-20T04:42:06;11.23;83.49
78988;DHT22;74752;44.786;37.680;2023-12-20T04:43:13;11.19;83.53
78988;DHT22;74752;44.786;37.680;2023-12-20T04:44:18;11.19;82.91
78988;DHT22;74752;44.786;37.680;2023-12-20T04:45:21;11.18;83.71
78988;DHT22;74752;44.786;37.680;2023-12-20T04:46:34;11.15;83.38
78988;DHT22;74752;44.786;37.680;2023-12-20T04:47:37;11.16;83.62
78988;DHT22;74752;44.786;37.680;2023-12-20T04:48:42;11.15;83.38
78988;DHT22;74752;44.786;37.680;2023-12-20T04:49:49;11.14;83.38
78988;DHT22;74752;44.786;37.680;2023-12-20T04:50:52;11.15;83.77
78988;DHT22;74752;44.786;37.680;2023-12-20T04:51:55;11.15;84.09
78988;DHT22;74752;44.786;37.680;2023-12-20T04:53:01;11.12;83.61
78988;DHT22;74752;44.786;37.680;2023-12-20T04:54:04;11.14;83.62
78988;DHT22;74752;44.786;37.680;2023-12-20T04:55:07;11.13;82.98
78988;DHT22;74752;44.786;37.680;2023-12-20T04:56:11;11.11;82.94
78988;DHT22;74752;44.786;37.680;2023-12-20T04:57:22;11.10;82.46
78988;DHT22;74752;44.786;37.680;2023-12-20T04:58:24;11.10;82.78
78988;DHT22;74752;44.786;37.680;2023-12-20T04:59:49;11.07;82.57
78988;DHT22;74752;44.786;37.680;2023-12-20T05:00:54;11.08;83.00
78988;DHT22;74752;44.786;37.680;2023-12-20T05:01:57;11.09;82.65
78988;DHT22;74752;44.786;37.680;2023-12-20T05:03:00;11.07;82.25
78988;DHT22;74752;44.786;37.680;2023-12-20T05:04:04;11.08;82.43
78988;DHT22;74752;44.786;37.680;2023-12-20T05:05:15;11.07;82.42
78988;DHT22;74752;44.786;37.680;2023-12-20T05:06:20;11.07;82.26
78988;DHT22;74752;44.786;37.680;2023-12-20T05:07:29;11.04;82.17
78988;DHT22;74752;44.786;37.680;2023-12-20T05:08:32;11.00;82.49
78988;DHT22;74752;44.786;37.680;2023-12-20T05:09:37;11.01;82.57
78988;DHT22;74752;44.786;37.680;2023-12-20T05:10:40;11.02;82.52
78988;DHT22;74752;44.786;37.680;2023-12-20T05:11:48;11.02;83.17
78988;DHT22;74752;44.786;37.680;2023-12-20T05:12:51;11.01;82.68
78988;DHT22;74752;44.786;37.680;2023-12-20T05:13:56;11.02;82.72
78988;DHT22;74752;44.786;37.680;2023-12-20T05:15:02;10.98;82.83
78988;DHT22;74752;44.786;37.680;2023-12-20T05:16:07;10.96;82.34
78988;DHT22;74752;44.786;37.680;2023-12-20T05:17:11;10.95;82.28
78988;DHT22;74752;44.786;37.680;2023-12-20T05:18:14;10.93;82.16
78988;DHT22;74752;44.786;37.680;2023-12-20T05:19:17;10.97;82.68
78988;DHT22;74752;44.786;37.680;2023-12-20T05:20:22;10.97;82.79
78988;DHT22;74752;44.786;37.680;2023-12-20T05:21:27;10.97;82.91
78988;DHT22;74752;44.786;37.680;2023-12-20T05:22:32;10.99;82.25
78988;DHT22;74752;44.786;37.680;2023-12-20T05:23:38;11.01;82.96
78988;DHT22;74752;44.786;37.680;2023-12-20T05:24:43;11.02;82.64
78988;DHT22;74752;44.786;37.680;2023-12-20T05:25:46;11.08;82.72
78988;DHT22;74752;44.786;37.680;2023-12-20T05:26:50;11.10;82.73
78988;DHT22;74752;44.786;37.680;2023-12-20T05:27:54;11.11;83.04
78988;DHT22;74752;44.786;37.680;2023-12-20T05:28:56;11.10;83.00
78988;DHT22;74752;44.786;37.680;2023-12-20T05:30:00;11.12;82.57
78988;DHT22;74752;44.786;37.680;2023-12-20T05:31:03;11.12;82.43
78988;DHT22;74752;44.786;37.680;2023-12-20T05:32:06;11.14;82.58
78988;DHT22;74752;44.786;37.680;2023-12-20T05:33:13;11.17;82.86
78988;DHT22;74752;44.786;37.680;2023-12-20T05:34:18;11.19;82.57
78988;DHT22;74752;44.786;37.680;2023-12-20T05:35:21;11.20;81.71
78988;DHT22;74752;44.786;37.680;2023-12-20T05:36:25;11.25;81.97
78988;DHT22;74752;44.786;37.680;2023-12-20T05:37:30;11.20;82.25
78988;DHT22;74752;44.786;37.680;2023-12-20T05:38:35;11.20;82.97
78988;DHT22;74752;44.786;37.680;2023-12-20T05:39:40;11.19;82.94
78988;DHT22;74752;44.786;37.680;2023-12-20T05:40:45;11.19;82.73
78988;DHT22;74752;44.786;37.680;2023-12-20T05:41:47;11.20;82.23
78988;DHT22;74752;44.786;37.680;2023-12-20T05:42:57;11.26;82.05
78988;DHT22;74752;44.786;37.680;2023-12-20T05:44:11;11.25;82.29
78988;DHT22;74752;44.786;37.680;2023-12-20T05:45:19;11.27;82.53
78988;DHT22;74752;44.786;37.680;2023-12-20T05:46:22;11.28;82.23
78988;DHT22;74752;44.786;37.680;2023-12-20T05:47:27;11.33;81.74
78988;DHT22;74752;44.786;37.680;2023-12-20T05:48:30;11.39;81.67
78988;DHT22;74752;44.786;37.680;2023-12-20T05:49:37;11.39;81.86
78988;DHT22;74752;44.786;37.680;2023-12-20T05:50:40;11.41;80.89
78988;DHT22;74752;44.786;37.680;2023-12-20T05:51:48;11.47;81.78
78988;DHT22;74752;44.786;37.680;2023-12-20T05:52:52;11.52;80.94
78988;DHT22;74752;44.786;37.680;2023-12-20T05:53:55;11.53;81.52
78988;DHT22;74752;44.786;37.680;2023-12-20T05:55:00;11.59;80.98
78988;DHT22;74752;44.786;37.680;2023-12-20T05:56:09;11.63;80.94
78988;DHT22;74752;44.786;37.680;2023-12-20T05:57:19;11.66;80.30
78988;DHT22;74752;44.786;37.680;2023-12-20T05:58:25;11.68;80.92
78988;DHT22;74752;44.786;37.680;2023-12-20T05:59:28;11.71;80.43
78988;DHT22;74752;44.786;37.680;2023-12-20T06:00:31;11.81;79.82
78988;DHT22;74752;44.786;37.680;2023-12-20T06:01:39;11.87;79.17
78988;DHT22;74752;44.786;37.680;2023-12-20T06:02:49;11.89;78.54
78988;DHT22;74752;44.786;37.680;2023-12-20T06:03:53;11.86;78.86
78988;DHT22;74752;44.786;37.680;2023-12-20T06:05:05;11.81;79.67
78988;DHT22;74752;44.786;37.680;2023-12-20T06:06:14;11.86;79.72
78988;DHT22;74752;44.786;37.680;2023-12-20T06:07:16;11.89;79.82
78988;DHT22;74752;44.786;37.680;2023-12-20T06:08:23;11.93;78.96
78988;DHT22;74752;44.786;37.680;2023-12-20T06:09:29;11.94;79.31
78988;DHT22;74752;44.786;37.680;2023-12-20T06:10:37;11.96;79.55
78988;DHT22;74752;44.786;37.680;2023-12-20T06:11:41;11.99;79.59
78988;DHT22;74752;44.786;37.680;2023-12-20T06:12:44;12.04;78.97
78988;DHT22;74752;44.786;37.680;2023-12-20T06:13:50;12.08;78.90
78988;DHT22;74752;44.786;37.680;2023-12-20T06:15:01;12.07;79.09
78988;DHT22;74752;44.786;37.680;2023-12-20T06:16:09;12.12;78.82
78988;DHT22;74752;44.786;37.680;2023-12-20T06:17:20;12.15;77.59
78988;DHT22;74752;44.786;37.680;2023-12-20T06:18:26;12.15;77.69
78988;DHT22;74752;44.786;37.680;2023-12-20T06:19:30;12.15;78.15
78988;DHT22;74752;44.786;37.680;2023-12-20T06:20:33;12.12;77.71
78988;DHT22;74752;44.786;37.680;2023-12-20T06:21:38;12.13;77.61
78988;DHT22;74752;44.786;37.680;2023-12-20T06:22:44;12.11;77.43
78988;DHT22;74752;44.786;37.680;2023-12-20T06:23:47;12.11;78.21
78988;DHT22;74752;44.786;37.680;2023-12-20T06:24:50;12.08;77.77
78988;DHT22;74752;44.786;37.680;2023-12-20T06:25:53;12.12;77.10
78988;DHT22;74752;44.786;37.680;2023-12-20T06:27:00;12.07;77.01
78988;DHT22;74752;44.786;37.680;2023-12-20T06:28:06;12.06;77.82
78988;DHT22;74752;44.786;37.680;2023-12-20T06:29:14;12.05;76.39
78988;DHT22;74752;44.786;37.680;2023-12-20T06:30:17;12.04;77.09
78988;DHT22;74752;44.786;37.680;2023-12-20T06:31:21;12.01;77.10
78988;DHT22;74752;44.786;37.680;2023-12-20T06:32:24;11.98;77.38
78988;DHT22;74752;44.786;37.680;2023-12-20T06:33:32;12.03;77.35
78988;DHT22;74752;44.786;37.680;2023-12-20T06:34:35;12.06;77.29
78988;DHT22;74752;44.786;37.680;2023-12-20T06:35:37;12.04;77.95
78988;DHT22;74752;44.786;37.680;2023-12-20T06:36:40;12.03;77.08
78988;DHT22;74752;44.786;37.680;2023-12-20T06:37:46;11.99;77.25
78988;DHT22;74752;44.786;37.680;2023-12-20T06:38:52;11.99;76.90
78988;DHT22;74752;44.786;37.680;2023-12-20T06:39:55;12.00;76.92
78988;DHT22;74752;44.786;37.680;2023-12-20T06:41:00;12.00;77.18
78988;DHT22;74752;44.786;37.680;2023-12-20T06:42:06;12.00;77.29
78988;DHT22;74752;44.786;37.680;2023-12-20T06:43:14;12.05;76.59